Henryetta, Oklahoma
Current Conditions -  °F | °C
As of 2:55 PM on Thursday 23 Oct 2014 (Local Time) from KOKM Reporting Station
Clear Clear  
Wind Chill: 65°   Ceiling: Unl
Heat Index: 65°   Visibility: 10mi
Dew Point: 58°   Wind: 8mph
Humidity: 78%   Direction: 140°SE
Pressure: 30.1"   Gusts: NA
Location:  35.44°N, 95.98°W
Report Text: KOKM 231955Z AUTO 14007KT 10SM CLR 18/15 A3010 RMK AO2 T01830145
Loading
Personal Weather Stations






























Interactive Weather Map
Tropical Storm Tracking
New forecast layout! Learn more

10-Day Weather Forecast

Advertisements
Track Severe Weather on mobile